sensor_id;sensor_type;location;lat;lon;timestamp;P1;durP1;ratioP1;P2;durP2;ratioP2
3613;SDS011;1821;50.936;6.854;2024-01-30T00:00:16;15.27;;;12.55;;
3613;SDS011;1821;50.936;6.854;2024-01-30T00:01:00;13.82;;;12.23;;
3613;SDS011;1821;50.936;6.854;2024-01-30T00:01:42;14.15;;;12.65;;
3613;SDS011;1821;50.936;6.854;2024-01-30T00:02:24;15.38;;;13.13;;
3613;SDS011;1821;50.936;6.854;2024-01-30T00:03:07;17.60;;;14.50;;
3613;SDS011;1821;50.936;6.854;2024-01-30T00:03:49;18.48;;;13.25;;
3613;SDS011;1821;50.936;6.854;2024-01-30T00:04:32;14.80;;;12.43;;
3613;SDS011;1821;50.936;6.854;2024-01-30T00:05:14;18.23;;;12.60;;
3613;SDS011;1821;50.936;6.854;2024-01-30T00:05:56;15.38;;;12.88;;
3613;SDS011;1821;50.936;6.854;2024-01-30T00:06:40;14.93;;;12.70;;
3613;SDS011;1821;50.936;6.854;2024-01-30T00:07:22;15.00;;;13.30;;
3613;SDS011;1821;50.936;6.854;2024-01-30T00:08:04;17.38;;;13.40;;
3613;SDS011;1821;50.936;6.854;2024-01-30T00:08:46;15.90;;;12.30;;
3613;SDS011;1821;50.936;6.854;2024-01-30T00:09:30;14.27;;;12.77;;
3613;SDS011;1821;50.936;6.854;2024-01-30T00:10:14;18.90;;;13.18;;
3613;SDS011;1821;50.936;6.854;2024-01-30T00:10:57;17.55;;;12.98;;
3613;SDS011;1821;50.936;6.854;2024-01-30T00:11:38;16.65;;;13.32;;
3613;SDS011;1821;50.936;6.854;2024-01-30T00:12:21;17.58;;;13.80;;
3613;SDS011;1821;50.936;6.854;2024-01-30T00:13:02;14.93;;;13.30;;
3613;SDS011;1821;50.936;6.854;2024-01-30T00:13:45;16.92;;;12.85;;
3613;SDS011;1821;50.936;6.854;2024-01-30T00:14:27;16.25;;;12.85;;
3613;SDS011;1821;50.936;6.854;2024-01-30T00:15:08;15.70;;;13.77;;
3613;SDS011;1821;50.936;6.854;2024-01-30T00:15:51;16.20;;;12.65;;
3613;SDS011;1821;50.936;6.854;2024-01-30T00:16:35;17.60;;;13.23;;
3613;SDS011;1821;50.936;6.854;2024-01-30T00:17:17;18.73;;;13.27;;
3613;SDS011;1821;50.936;6.854;2024-01-30T00:18:00;15.52;;;13.07;;
3613;SDS011;1821;50.936;6.854;2024-01-30T00:18:42;16.23;;;13.57;;
3613;SDS011;1821;50.936;6.854;2024-01-30T00:19:24;16.38;;;14.13;;
3613;SDS011;1821;50.936;6.854;2024-01-30T00:20:06;15.15;;;13.48;;
3613;SDS011;1821;50.936;6.854;2024-01-30T00:20:53;15.40;;;13.77;;
3613;SDS011;1821;50.936;6.854;2024-01-30T00:21:37;17.90;;;13.60;;
3613;SDS011;1821;50.936;6.854;2024-01-30T00:22:20;17.90;;;13.65;;
3613;SDS011;1821;50.936;6.854;2024-01-30T00:23:01;15.55;;;12.85;;
3613;SDS011;1821;50.936;6.854;2024-01-30T00:23:43;14.45;;;12.60;;
3613;SDS011;1821;50.936;6.854;2024-01-30T00:24:26;18.23;;;13.85;;
3613;SDS011;1821;50.936;6.854;2024-01-30T00:25:07;16.75;;;14.75;;
3613;SDS011;1821;50.936;6.854;2024-01-30T00:25:50;15.60;;;13.55;;
3613;SDS011;1821;50.936;6.854;2024-01-30T00:26:32;15.10;;;12.98;;
3613;SDS011;1821;50.936;6.854;2024-01-30T00:27:14;15.80;;;13.88;;
3613;SDS011;1821;50.936;6.854;2024-01-30T00:27:56;16.30;;;14.00;;
3613;SDS011;1821;50.936;6.854;2024-01-30T00:28:38;15.40;;;13.75;;
3613;SDS011;1821;50.936;6.854;2024-01-30T00:29:22;16.55;;;14.30;;
3613;SDS011;1821;50.936;6.854;2024-01-30T00:30:04;15.98;;;13.70;;
3613;SDS011;1821;50.936;6.854;2024-01-30T00:30:48;14.88;;;13.10;;
3613;SDS011;1821;50.936;6.854;2024-01-30T00:31:30;16.52;;;13.10;;
3613;SDS011;1821;50.936;6.854;2024-01-30T00:32:12;15.93;;;13.43;;
3613;SDS011;1821;50.936;6.854;2024-01-30T00:32:54;15.20;;;13.18;;
3613;SDS011;1821;50.936;6.854;2024-01-30T00:33:36;16.95;;;12.85;;
3613;SDS011;1821;50.936;6.854;2024-01-30T00:34:18;15.18;;;12.90;;
3613;SDS011;1821;50.936;6.854;2024-01-30T00:35:00;15.32;;;12.90;;
3613;SDS011;1821;50.936;6.854;2024-01-30T00:35:42;17.13;;;13.52;;
3613;SDS011;1821;50.936;6.854;2024-01-30T00:36:25;18.02;;;14.20;;
3613;SDS011;1821;50.936;6.854;2024-01-30T00:37:07;16.90;;;13.98;;
3613;SDS011;1821;50.936;6.854;2024-01-30T00:37:49;16.55;;;13.95;;
3613;SDS011;1821;50.936;6.854;2024-01-30T00:38:31;16.58;;;12.98;;
3613;SDS011;1821;50.936;6.854;2024-01-30T00:39:13;16.63;;;13.20;;
3613;SDS011;1821;50.936;6.854;2024-01-30T00:39:57;15.25;;;13.65;;
3613;SDS011;1821;50.936;6.854;2024-01-30T00:40:38;16.63;;;13.68;;
3613;SDS011;1821;50.936;6.854;2024-01-30T00:41:20;17.40;;;13.68;;
3613;SDS011;1821;50.936;6.854;2024-01-30T00:42:02;16.70;;;13.43;;
3613;SDS011;1821;50.936;6.854;2024-01-30T00:42:44;19.08;;;14.35;;
3613;SDS011;1821;50.936;6.854;2024-01-30T00:43:27;18.92;;;14.73;;
3613;SDS011;1821;50.936;6.854;2024-01-30T00:44:11;16.42;;;13.32;;
3613;SDS011;1821;50.936;6.854;2024-01-30T00:44:55;17.67;;;13.68;;
3613;SDS011;1821;50.936;6.854;2024-01-30T00:45:37;18.85;;;13.55;;
3613;SDS011;1821;50.936;6.854;2024-01-30T00:46:19;16.33;;;13.40;;
3613;SDS011;1821;50.936;6.854;2024-01-30T00:47:02;15.55;;;13.40;;
3613;SDS011;1821;50.936;6.854;2024-01-30T00:47:44;16.15;;;13.90;;
3613;SDS011;1821;50.936;6.854;2024-01-30T00:48:26;15.38;;;13.57;;
3613;SDS011;1821;50.936;6.854;2024-01-30T00:49:10;15.95;;;12.65;;
3613;SDS011;1821;50.936;6.854;2024-01-30T00:49:52;15.60;;;12.90;;
3613;SDS011;1821;50.936;6.854;2024-01-30T00:50:34;15.55;;;13.85;;
3613;SDS011;1821;50.936;6.854;2024-01-30T00:51:19;17.17;;;14.57;;
3613;SDS011;1821;50.936;6.854;2024-01-30T00:52:01;16.60;;;13.95;;
3613;SDS011;1821;50.936;6.854;2024-01-30T00:52:43;16.70;;;14.40;;
3613;SDS011;1821;50.936;6.854;2024-01-30T00:53:26;16.33;;;13.82;;
3613;SDS011;1821;50.936;6.854;2024-01-30T00:54:08;15.52;;;13.57;;
3613;SDS011;1821;50.936;6.854;2024-01-30T00:54:50;15.65;;;13.40;;
3613;SDS011;1821;50.936;6.854;2024-01-30T00:55:32;16.02;;;13.57;;
3613;SDS011;1821;50.936;6.854;2024-01-30T00:56:14;16.83;;;14.43;;
3613;SDS011;1821;50.936;6.854;2024-01-30T00:57:01;16.30;;;14.10;;
3613;SDS011;1821;50.936;6.854;2024-01-30T00:57:43;16.08;;;13.65;;
3613;SDS011;1821;50.936;6.854;2024-01-30T00:58:26;17.10;;;13.85;;
3613;SDS011;1821;50.936;6.854;2024-01-30T00:59:08;16.75;;;13.32;;
3613;SDS011;1821;50.936;6.854;2024-01-30T00:59:50;18.05;;;14.05;;
3613;SDS011;1821;50.936;6.854;2024-01-30T01:00:32;14.88;;;13.27;;
3613;SDS011;1821;50.936;6.854;2024-01-30T01:01:14;15.95;;;14.25;;
3613;SDS011;1821;50.936;6.854;2024-01-30T01:01:56;16.67;;;13.93;;
3613;SDS011;1821;50.936;6.854;2024-01-30T01:02:38;14.98;;;13.38;;
3613;SDS011;1821;50.936;6.854;2024-01-30T01:03:21;15.73;;;13.75;;
3613;SDS011;1821;50.936;6.854;2024-01-30T01:04:03;17.90;;;13.73;;
3613;SDS011;1821;50.936;6.854;2024-01-30T01:04:45;16.02;;;12.88;;
3613;SDS011;1821;50.936;6.854;2024-01-30T01:05:27;17.95;;;13.85;;
3613;SDS011;1821;50.936;6.854;2024-01-30T01:06:09;15.80;;;13.65;;
3613;SDS011;1821;50.936;6.854;2024-01-30T01:06:52;15.15;;;13.55;;
3613;SDS011;1821;50.936;6.854;2024-01-30T01:07:34;16.23;;;13.50;;
3613;SDS011;1821;50.936;6.854;2024-01-30T01:08:16;16.17;;;13.38;;
3613;SDS011;1821;50.936;6.854;2024-01-30T01:08:59;16.05;;;13.55;;
3613;SDS011;1821;50.936;6.854;2024-01-30T01:09:45;18.50;;;15.00;;
3613;SDS011;1821;50.936;6.854;2024-01-30T01:10:27;14.85;;;13.20;;
3613;SDS011;1821;50.936;6.854;2024-01-30T01:11:10;14.75;;;12.75;;
3613;SDS011;1821;50.936;6.854;2024-01-30T01:11:52;15.90;;;13.15;;
3613;SDS011;1821;50.936;6.854;2024-01-30T01:12:36;16.92;;;14.13;;
3613;SDS011;1821;50.936;6.854;2024-01-30T01:13:18;16.63;;;14.65;;
3613;SDS011;1821;50.936;6.854;2024-01-30T01:14:00;15.35;;;13.75;;
3613;SDS011;1821;50.936;6.854;2024-01-30T01:14:42;17.20;;;13.88;;
3613;SDS011;1821;50.936;6.854;2024-01-30T01:15:24;16.00;;;13.57;;
3613;SDS011;1821;50.936;6.854;2024-01-30T01:16:10;19.00;;;14.73;;
3613;SDS011;1821;50.936;6.854;2024-01-30T01:16:52;15.63;;;13.93;;
3613;SDS011;1821;50.936;6.854;2024-01-30T01:17:34;16.20;;;13.93;;
3613;SDS011;1821;50.936;6.854;2024-01-30T01:18:17;15.35;;;13.55;;
3613;SDS011;1821;50.936;6.854;2024-01-30T01:18:59;16.10;;;13.90;;
3613;SDS011;1821;50.936;6.854;2024-01-30T01:19:42;15.38;;;13.77;;
3613;SDS011;1821;50.936;6.854;2024-01-30T01:20:24;16.50;;;13.30;;
3613;SDS011;1821;50.936;6.854;2024-01-30T01:21:06;18.63;;;13.55;;
3613;SDS011;1821;50.936;6.854;2024-01-30T01:21:48;16.63;;;13.00;;
3613;SDS011;1821;50.936;6.854;2024-01-30T01:22:30;16.70;;;13.98;;
3613;SDS011;1821;50.936;6.854;2024-01-30T01:23:13;17.30;;;13.38;;
3613;SDS011;1821;50.936;6.854;2024-01-30T01:23:55;17.35;;;13.07;;
3613;SDS011;1821;50.936;6.854;2024-01-30T01:24:37;15.70;;;13.48;;
3613;SDS011;1821;50.936;6.854;2024-01-30T01:25:20;18.60;;;13.98;;
3613;SDS011;1821;50.936;6.854;2024-01-30T01:26:02;18.98;;;13.88;;
3613;SDS011;1821;50.936;6.854;2024-01-30T01:26:44;16.17;;;13.32;;
3613;SDS011;1821;50.936;6.854;2024-01-30T01:27:27;16.70;;;13.77;;
3613;SDS011;1821;50.936;6.854;2024-01-30T01:28:09;16.75;;;14.00;;
3613;SDS011;1821;50.936;6.854;2024-01-30T01:28:51;16.85;;;13.48;;
3613;SDS011;1821;50.936;6.854;2024-01-30T01:29:33;18.17;;;13.63;;
3613;SDS011;1821;50.936;6.854;2024-01-30T01:30:14;17.42;;;13.20;;
3613;SDS011;1821;50.936;6.854;2024-01-30T01:31:02;17.27;;;13.45;;
3613;SDS011;1821;50.936;6.854;2024-01-30T01:31:47;15.93;;;13.88;;
3613;SDS011;1821;50.936;6.854;2024-01-30T01:32:29;17.58;;;13.85;;
3613;SDS011;1821;50.936;6.854;2024-01-30T01:33:11;17.55;;;13.75;;
3613;SDS011;1821;50.936;6.854;2024-01-30T01:33:56;20.27;;;13.27;;
3613;SDS011;1821;50.936;6.854;2024-01-30T01:34:38;16.23;;;12.48;;
3613;SDS011;1821;50.936;6.854;2024-01-30T01:35:21;14.10;;;12.57;;
3613;SDS011;1821;50.936;6.854;2024-01-30T01:36:06;16.80;;;13.02;;
3613;SDS011;1821;50.936;6.854;2024-01-30T01:36:48;16.15;;;13.60;;
3613;SDS011;1821;50.936;6.854;2024-01-30T01:37:31;16.48;;;13.48;;
3613;SDS011;1821;50.936;6.854;2024-01-30T01:38:13;16.73;;;12.93;;
3613;SDS011;1821;50.936;6.854;2024-01-30T01:38:55;16.35;;;13.70;;
3613;SDS011;1821;50.936;6.854;2024-01-30T01:39:37;15.57;;;13.90;;
3613;SDS011;1821;50.936;6.854;2024-01-30T01:40:19;17.27;;;13.95;;
3613;SDS011;1821;50.936;6.854;2024-01-30T01:41:01;17.33;;;13.88;;
3613;SDS011;1821;50.936;6.854;2024-01-30T01:41:43;16.02;;;13.90;;
3613;SDS011;1821;50.936;6.854;2024-01-30T01:42:25;15.98;;;13.68;;
3613;SDS011;1821;50.936;6.854;2024-01-30T01:43:09;17.40;;;13.68;;
3613;SDS011;1821;50.936;6.854;2024-01-30T01:43:54;14.98;;;12.68;;
3613;SDS011;1821;50.936;6.854;2024-01-30T01:44:36;16.52;;;13.32;;
3613;SDS011;1821;50.936;6.854;2024-01-30T01:45:18;16.20;;;13.25;;
3613;SDS011;1821;50.936;6.854;2024-01-30T01:46:01;15.52;;;13.40;;
3613;SDS011;1821;50.936;6.854;2024-01-30T01:46:44;15.80;;;12.90;;
3613;SDS011;1821;50.936;6.854;2024-01-30T01:47:26;16.85;;;12.82;;
3613;SDS011;1821;50.936;6.854;2024-01-30T01:48:08;16.70;;;12.90;;
3613;SDS011;1821;50.936;6.854;2024-01-30T01:48:53;17.10;;;13.32;;
3613;SDS011;1821;50.936;6.854;2024-01-30T01:49:36;16.15;;;13.27;;
3613;SDS011;1821;50.936;6.854;2024-01-30T01:50:20;16.75;;;13.18;;
3613;SDS011;1821;50.936;6.854;2024-01-30T01:51:03;17.52;;;14.13;;
3613;SDS011;1821;50.936;6.854;2024-01-30T01:51:48;17.38;;;14.00;;
3613;SDS011;1821;50.936;6.854;2024-01-30T01:52:30;17.77;;;13.52;;
3613;SDS011;1821;50.936;6.854;2024-01-30T01:53:13;16.75;;;13.30;;
3613;SDS011;1821;50.936;6.854;2024-01-30T01:53:57;16.52;;;13.20;;
3613;SDS011;1821;50.936;6.854;2024-01-30T01:54:43;15.07;;;13.48;;
3613;SDS011;1821;50.936;6.854;2024-01-30T01:55:24;15.50;;;13.23;;
3613;SDS011;1821;50.936;6.854;2024-01-30T01:56:12;17.35;;;13.10;;
3613;SDS011;1821;50.936;6.854;2024-01-30T01:56:54;16.40;;;13.60;;
3613;SDS011;1821;50.936;6.854;2024-01-30T01:57:36;20.38;;;13.43;;
3613;SDS011;1821;50.936;6.854;2024-01-30T01:58:18;19.35;;;13.13;;
3613;SDS011;1821;50.936;6.854;2024-01-30T01:59:07;15.55;;;13.60;;
3613;SDS011;1821;50.936;6.854;2024-01-30T01:59:49;14.48;;;12.98;;
3613;SDS011;1821;50.936;6.854;2024-01-30T02:00:32;17.35;;;13.10;;
3613;SDS011;1821;50.936;6.854;2024-01-30T02:01:17;17.58;;;13.63;;
3613;SDS011;1821;50.936;6.854;2024-01-30T02:02:02;17.25;;;13.50;;
3613;SDS011;1821;50.936;6.854;2024-01-30T02:02:46;14.70;;;13.20;;
3613;SDS011;1821;50.936;6.854;2024-01-30T02:03:30;15.07;;;12.65;;
3613;SDS011;1821;50.936;6.854;2024-01-30T02:04:12;18.75;;;13.20;;
3613;SDS011;1821;50.936;6.854;2024-01-30T02:04:55;15.55;;;12.55;;
3613;SDS011;1821;50.936;6.854;2024-01-30T02:05:38;15.07;;;12.60;;
3613;SDS011;1821;50.936;6.854;2024-01-30T02:06:22;18.38;;;12.18;;
3613;SDS011;1821;50.936;6.854;2024-01-30T02:07:04;17.60;;;12.55;;
3613;SDS011;1821;50.936;6.854;2024-01-30T02:07:46;15.57;;;13.57;;
3613;SDS011;1821;50.936;6.854;2024-01-30T02:08:28;15.57;;;13.57;;
3613;SDS011;1821;50.936;6.854;2024-01-30T02:09:11;16.38;;;13.20;;
3613;SDS011;1821;50.936;6.854;2024-01-30T02:09:53;17.80;;;12.93;;
3613;SDS011;1821;50.936;6.854;2024-01-30T02:10:36;16.92;;;13.00;;
3613;SDS011;1821;50.936;6.854;2024-01-30T02:11:18;18.40;;;13.73;;
3613;SDS011;1821;50.936;6.854;2024-01-30T02:12:02;16.20;;;12.50;;
3613;SDS011;1821;50.936;6.854;2024-01-30T02:12:44;14.93;;;12.60;;
3613;SDS011;1821;50.936;6.854;2024-01-30T02:13:26;15.85;;;13.05;;
3613;SDS011;1821;50.936;6.854;2024-01-30T02:14:08;14.82;;;12.75;;
3613;SDS011;1821;50.936;6.854;2024-01-30T02:14:50;16.38;;;13.77;;
3613;SDS011;1821;50.936;6.854;2024-01-30T02:15:32;15.05;;;13.00;;
3613;SDS011;1821;50.936;6.854;2024-01-30T02:16:14;16.35;;;13.25;;
3613;SDS011;1821;50.936;6.854;2024-01-30T02:16:59;19.27;;;14.38;;
3613;SDS011;1821;50.936;6.854;2024-01-30T02:17:41;17.80;;;13.77;;
3613;SDS011;1821;50.936;6.854;2024-01-30T02:18:23;16.60;;;13.10;;
3613;SDS011;1821;50.936;6.854;2024-01-30T02:19:05;15.77;;;13.15;;
3613;SDS011;1821;50.936;6.854;2024-01-30T02:19:49;16.95;;;13.20;;
3613;SDS011;1821;50.936;6.854;2024-01-30T02:20:31;16.75;;;13.23;;
3613;SDS011;1821;50.936;6.854;2024-01-30T02:21:16;16.05;;;13.43;;
3613;SDS011;1821;50.936;6.854;2024-01-30T02:22:01;14.48;;;12.63;;
3613;SDS011;1821;50.936;6.854;2024-01-30T02:22:47;15.48;;;12.93;;
3613;SDS011;1821;50.936;6.854;2024-01-30T02:23:30;16.70;;;13.68;;
3613;SDS011;1821;50.936;6.854;2024-01-30T02:24:14;16.27;;;14.52;;
3613;SDS011;1821;50.936;6.854;2024-01-30T02:24:56;16.45;;;13.45;;
3613;SDS011;1821;50.936;6.854;2024-01-30T02:25:39;18.20;;;13.63;;
3613;SDS011;1821;50.936;6.854;2024-01-30T02:26:27;14.80;;;13.20;;
3613;SDS011;1821;50.936;6.854;2024-01-30T02:27:09;15.63;;;12.95;;
3613;SDS011;1821;50.936;6.854;2024-01-30T02:27:52;17.20;;;13.48;;
3613;SDS011;1821;50.936;6.854;2024-01-30T02:28:34;17.50;;;13.55;;
3613;SDS011;1821;50.936;6.854;2024-01-30T02:29:15;16.95;;;13.38;;
3613;SDS011;1821;50.936;6.854;2024-01-30T02:29:57;17.10;;;13.40;;
3613;SDS011;1821;50.936;6.854;2024-01-30T02:30:40;17.63;;;13.40;;
3613;SDS011;1821;50.936;6.854;2024-01-30T02:31:26;16.30;;;13.50;;
3613;SDS011;1821;50.936;6.854;2024-01-30T02:32:08;17.17;;;13.35;;
3613;SDS011;1821;50.936;6.854;2024-01-30T02:32:50;16.63;;;13.30;;
3613;SDS011;1821;50.936;6.854;2024-01-30T02:33:33;15.57;;;13.25;;
3613;SDS011;1821;50.936;6.854;2024-01-30T02:34:16;15.63;;;13.25;;
3613;SDS011;1821;50.936;6.854;2024-01-30T02:34:58;18.00;;;13.75;;
3613;SDS011;1821;50.936;6.854;2024-01-30T02:35:39;16.02;;;13.38;;
3613;SDS011;1821;50.936;6.854;2024-01-30T02:36:21;15.95;;;13.13;;
3613;SDS011;1821;50.936;6.854;2024-01-30T02:37:03;15.02;;;13.43;;
3613;SDS011;1821;50.936;6.854;2024-01-30T02:37:45;14.57;;;13.00;;
3613;SDS011;1821;50.936;6.854;2024-01-30T02:38:28;16.88;;;14.15;;
3613;SDS011;1821;50.936;6.854;2024-01-30T02:39:10;16.42;;;13.90;;
3613;SDS011;1821;50.936;6.854;2024-01-30T02:39:52;15.65;;;12.63;;
3613;SDS011;1821;50.936;6.854;2024-01-30T02:40:34;16.88;;;13.13;;
3613;SDS011;1821;50.936;6.854;2024-01-30T02:41:16;18.20;;;12.80;;
3613;SDS011;1821;50.936;6.854;2024-01-30T02:42:00;16.92;;;13.05;;
3613;SDS011;1821;50.936;6.854;2024-01-30T02:42:42;18.50;;;13.85;;
3613;SDS011;1821;50.936;6.854;2024-01-30T02:43:25;15.63;;;13.13;;
3613;SDS011;1821;50.936;6.854;2024-01-30T02:44:07;16.77;;;12.90;;
3613;SDS011;1821;50.936;6.854;2024-01-30T02:44:49;15.02;;;12.63;;
3613;SDS011;1821;50.936;6.854;2024-01-30T02:45:31;16.45;;;13.45;;
3613;SDS011;1821;50.936;6.854;2024-01-30T02:46:13;15.68;;;13.57;;
3613;SDS011;1821;50.936;6.854;2024-01-30T02:46:55;18.00;;;13.60;;
3613;SDS011;1821;50.936;6.854;2024-01-30T02:47:38;15.68;;;12.90;;
3613;SDS011;1821;50.936;6.854;2024-01-30T02:48:20;14.18;;;12.30;;
3613;SDS011;1821;50.936;6.854;2024-01-30T02:49:02;15.60;;;12.93;;
3613;SDS011;1821;50.936;6.854;2024-01-30T02:49:45;17.33;;;13.00;;
3613;SDS011;1821;50.936;6.854;2024-01-30T02:50:27;16.80;;;12.55;;
3613;SDS011;1821;50.936;6.854;2024-01-30T02:51:09;13.95;;;12.45;;
3613;SDS011;1821;50.936;6.854;2024-01-30T02:51:52;14.98;;;12.98;;
3613;SDS011;1821;50.936;6.854;2024-01-30T02:52:35;15.60;;;13.90;;
3613;SDS011;1821;50.936;6.854;2024-01-30T02:53:17;16.52;;;13.90;;
3613;SDS011;1821;50.936;6.854;2024-01-30T02:53:59;15.57;;;13.05;;
3613;SDS011;1821;50.936;6.854;2024-01-30T02:54:41;16.05;;;13.45;;
3613;SDS011;1821;50.936;6.854;2024-01-30T02:55:23;16.67;;;13.98;;
3613;SDS011;1821;50.936;6.854;2024-01-30T02:56:05;16.25;;;13.45;;
3613;SDS011;1821;50.936;6.854;2024-01-30T02:56:50;18.95;;;12.18;;
3613;SDS011;1821;50.936;6.854;2024-01-30T02:57:32;16.80;;;12.20;;
3613;SDS011;1821;50.936;6.854;2024-01-30T02:58:18;15.93;;;13.15;;
3613;SDS011;1821;50.936;6.854;2024-01-30T02:59:00;15.25;;;12.95;;
3613;SDS011;1821;50.936;6.854;2024-01-30T02:59:42;15.40;;;12.57;;
3613;SDS011;1821;50.936;6.854;2024-01-30T03:00:24;13.57;;;11.57;;
3613;SDS011;1821;50.936;6.854;2024-01-30T03:01:06;13.85;;;12.35;;
3613;SDS011;1821;50.936;6.854;2024-01-30T03:01:48;20.20;;;12.95;;
3613;SDS011;1821;50.936;6.854;2024-01-30T03:02:31;18.92;;;13.00;;
3613;SDS011;1821;50.936;6.854;2024-01-30T03:03:13;16.05;;;13.13;;
3613;SDS011;1821;50.936;6.854;2024-01-30T03:03:55;14.15;;;12.73;;
3613;SDS011;1821;50.936;6.854;2024-01-30T03:04:37;14.27;;;12.75;;
3613;SDS011;1821;50.936;6.854;2024-01-30T03:05:22;16.38;;;13.25;;
3613;SDS011;1821;50.936;6.854;2024-01-30T03:06:05;13.45;;;11.57;;
3613;SDS011;1821;50.936;6.854;2024-01-30T03:06:47;14.70;;;12.98;;
3613;SDS011;1821;50.936;6.854;2024-01-30T03:07:29;14.95;;;13.35;;
3613;SDS011;1821;50.936;6.854;2024-01-30T03:08:11;15.30;;;12.65;;
3613;SDS011;1821;50.936;6.854;2024-01-30T03:08:56;17.05;;;12.60;;
3613;SDS011;1821;50.936;6.854;2024-01-30T03:09:38;15.25;;;12.65;;
3613;SDS011;1821;50.936;6.854;2024-01-30T03:10:20;16.05;;;13.20;;
3613;SDS011;1821;50.936;6.854;2024-01-30T03:11:02;15.52;;;12.80;;
3613;SDS011;1821;50.936;6.854;2024-01-30T03:11:44;15.75;;;12.65;;
3613;SDS011;1821;50.936;6.854;2024-01-30T03:12:26;14.63;;;12.98;;
3613;SDS011;1821;50.936;6.854;2024-01-30T03:13:09;15.27;;;13.30;;
3613;SDS011;1821;50.936;6.854;2024-01-30T03:13:51;14.52;;;12.90;;
3613;SDS011;1821;50.936;6.854;2024-01-30T03:14:33;17.10;;;13.00;;
3613;SDS011;1821;50.936;6.854;2024-01-30T03:15:15;15.98;;;12.85;;
3613;SDS011;1821;50.936;6.854;2024-01-30T03:15:57;17.95;;;12.88;;
3613;SDS011;1821;50.936;6.854;2024-01-30T03:16:41;16.15;;;12.60;;
3613;SDS011;1821;50.936;6.854;2024-01-30T03:17:23;15.50;;;12.82;;
3613;SDS011;1821;50.936;6.854;2024-01-30T03:18:05;13.68;;;12.27;;
3613;SDS011;1821;50.936;6.854;2024-01-30T03:18:47;14.95;;;13.45;;
3613;SDS011;1821;50.936;6.854;2024-01-30T03:19:30;16.02;;;13.77;;
3613;SDS011;1821;50.936;6.854;2024-01-30T03:20:14;15.88;;;14.05;;
3613;SDS011;1821;50.936;6.854;2024-01-30T03:20:56;15.65;;;13.70;;
3613;SDS011;1821;50.936;6.854;2024-01-30T03:21:38;17.50;;;13.82;;
3613;SDS011;1821;50.936;6.854;2024-01-30T03:22:20;14.38;;;12.88;;
3613;SDS011;1821;50.936;6.854;2024-01-30T03:23:02;14.40;;;12.55;;
3613;SDS011;1821;50.936;6.854;2024-01-30T03:23:44;12.93;;;11.57;;
3613;SDS011;1821;50.936;6.854;2024-01-30T03:24:26;16.25;;;12.85;;
3613;SDS011;1821;50.936;6.854;2024-01-30T03:25:08;16.30;;;13.40;;
3613;SDS011;1821;50.936;6.854;2024-01-30T03:25:50;14.00;;;11.95;;
3613;SDS011;1821;50.936;6.854;2024-01-30T03:26:32;15.02;;;12.05;;
3613;SDS011;1821;50.936;6.854;2024-01-30T03:27:14;14.43;;;11.77;;
3613;SDS011;1821;50.936;6.854;2024-01-30T03:27:56;15.43;;;12.35;;
3613;SDS011;1821;50.936;6.854;2024-01-30T03:28:38;17.48;;;12.70;;
3613;SDS011;1821;50.936;6.854;2024-01-30T03:29:20;14.70;;;12.75;;
3613;SDS011;1821;50.936;6.854;2024-01-30T03:30:03;15.77;;;12.15;;
3613;SDS011;1821;50.936;6.854;2024-01-30T03:30:46;13.63;;;12.20;;
3613;SDS011;1821;50.936;6.854;2024-01-30T03:31:27;13.95;;;12.45;;
3613;SDS011;1821;50.936;6.854;2024-01-30T03:32:09;14.70;;;13.00;;
3613;SDS011;1821;50.936;6.854;2024-01-30T03:32:51;15.88;;;12.80;;
3613;SDS011;1821;50.936;6.854;2024-01-30T03:33:33;17.30;;;12.40;;
3613;SDS011;1821;50.936;6.854;2024-01-30T03:34:15;14.35;;;12.80;;
3613;SDS011;1821;50.936;6.854;2024-01-30T03:34:57;13.43;;;12.02;;
3613;SDS011;1821;50.936;6.854;2024-01-30T03:35:43;14.70;;;11.80;;
3613;SDS011;1821;50.936;6.854;2024-01-30T03:36:25;14.35;;;12.65;;
3613;SDS011;1821;50.936;6.854;2024-01-30T03:37:10;13.63;;;12.07;;
3613;SDS011;1821;50.936;6.854;2024-01-30T03:37:52;14.68;;;12.88;;
3613;SDS011;1821;50.936;6.854;2024-01-30T03:38:34;15.30;;;13.25;;
3613;SDS011;1821;50.936;6.854;2024-01-30T03:39:16;15.00;;;12.15;;
3613;SDS011;1821;50.936;6.854;2024-01-30T03:40:03;14.68;;;12.75;;
3613;SDS011;1821;50.936;6.854;2024-01-30T03:40:46;17.92;;;13.50;;
3613;SDS011;1821;50.936;6.854;2024-01-30T03:41:28;16.92;;;12.90;;
3613;SDS011;1821;50.936;6.854;2024-01-30T03:42:13;14.52;;;12.40;;
3613;SDS011;1821;50.936;6.854;2024-01-30T03:42:58;14.52;;;12.30;;
3613;SDS011;1821;50.936;6.854;2024-01-30T03:43:40;14.77;;;11.77;;
3613;SDS011;1821;50.936;6.854;2024-01-30T03:44:22;19.30;;;12.40;;
3613;SDS011;1821;50.936;6.854;2024-01-30T03:45:05;17.90;;;12.35;;
3613;SDS011;1821;50.936;6.854;2024-01-30T03:45:47;14.20;;;11.70;;
3613;SDS011;1821;50.936;6.854;2024-01-30T03:46:29;15.10;;;12.47;;
3613;SDS011;1821;50.936;6.854;2024-01-30T03:47:11;16.23;;;12.77;;
3613;SDS011;1821;50.936;6.854;2024-01-30T03:47:53;13.25;;;11.70;;
3613;SDS011;1821;50.936;6.854;2024-01-30T03:48:35;13.45;;;11.85;;
3613;SDS011;1821;50.936;6.854;2024-01-30T03:49:17;14.43;;;12.30;;
3613;SDS011;1821;50.936;6.854;2024-01-30T03:50:02;13.43;;;12.00;;
3613;SDS011;1821;50.936;6.854;2024-01-30T03:50:46;13.27;;;11.82;;
3613;SDS011;1821;50.936;6.854;2024-01-30T03:51:28;14.27;;;11.68;;
3613;SDS011;1821;50.936;6.854;2024-01-30T03:52:12;17.08;;;12.02;;
3613;SDS011;1821;50.936;6.854;2024-01-30T03:52:54;19.27;;;12.82;;
3613;SDS011;1821;50.936;6.854;2024-01-30T03:53:36;14.80;;;12.02;;
3613;SDS011;1821;50.936;6.854;2024-01-30T03:54:18;14.25;;;11.75;;
3613;SDS011;1821;50.936;6.854;2024-01-30T03:55:00;13.68;;;11.90;;
3613;SDS011;1821;50.936;6.854;2024-01-30T03:55:42;14.15;;;12.32;;
3613;SDS011;1821;50.936;6.854;2024-01-30T03:56:24;14.98;;;12.48;;
3613;SDS011;1821;50.936;6.854;2024-01-30T03:57:07;15.75;;;12.10;;
3613;SDS011;1821;50.936;6.854;2024-01-30T03:57:48;15.02;;;11.82;;
3613;SDS011;1821;50.936;6.854;2024-01-30T03:58:30;15.82;;;12.40;;
3613;SDS011;1821;50.936;6.854;2024-01-30T03:59:12;17.20;;;12.18;;
3613;SDS011;1821;50.936;6.854;2024-01-30T03:59:54;14.43;;;11.90;;
3613;SDS011;1821;50.936;6.854;2024-01-30T04:00:38;15.77;;;12.25;;
3613;SDS011;1821;50.936;6.854;2024-01-30T04:01:23;17.45;;;12.70;;
3613;SDS011;1821;50.936;6.854;2024-01-30T04:02:04;13.38;;;11.80;;
3613;SDS011;1821;50.936;6.854;2024-01-30T04:02:47;14.10;;;11.85;;
3613;SDS011;1821;50.936;6.854;2024-01-30T04:03:30;15.85;;;12.38;;
3613;SDS011;1821;50.936;6.854;2024-01-30T04:04:12;14.30;;;11.90;;
3613;SDS011;1821;50.936;6.854;2024-01-30T04:04:57;15.63;;;12.38;;
3613;SDS011;1821;50.936;6.854;2024-01-30T04:05:40;16.58;;;12.32;;
3613;SDS011;1821;50.936;6.854;2024-01-30T04:06:22;15.60;;;12.40;;
3613;SDS011;1821;50.936;6.854;2024-01-30T04:07:04;15.85;;;12.90;;
3613;SDS011;1821;50.936;6.854;2024-01-30T04:07:46;19.13;;;13.23;;
3613;SDS011;1821;50.936;6.854;2024-01-30T04:08:28;15.70;;;11.73;;
3613;SDS011;1821;50.936;6.854;2024-01-30T04:09:13;15.93;;;12.35;;
3613;SDS011;1821;50.936;6.854;2024-01-30T04:09:55;16.85;;;13.02;;
3613;SDS011;1821;50.936;6.854;2024-01-30T04:10:37;16.92;;;12.25;;
3613;SDS011;1821;50.936;6.854;2024-01-30T04:11:19;15.00;;;11.88;;
3613;SDS011;1821;50.936;6.854;2024-01-30T04:12:01;16.00;;;12.27;;
3613;SDS011;1821;50.936;6.854;2024-01-30T04:12:44;16.38;;;11.88;;
3613;SDS011;1821;50.936;6.854;2024-01-30T04:13:26;18.10;;;11.10;;
3613;SDS011;1821;50.936;6.854;2024-01-30T04:14:08;14.80;;;11.00;;
3613;SDS011;1821;50.936;6.854;2024-01-30T04:14:52;13.57;;;11.35;;
3613;SDS011;1821;50.936;6.854;2024-01-30T04:15:34;15.52;;;12.60;;
3613;SDS011;1821;50.936;6.854;2024-01-30T04:16:20;15.10;;;12.38;;
3613;SDS011;1821;50.936;6.854;2024-01-30T04:17:06;15.73;;;11.73;;